createdAt,value
2023-03-29T00:00:20.802Z,6.53
2023-03-29T00:02:48.919Z,6.97
2023-03-29T00:05:23.475Z,8.63
2023-03-29T00:07:54.888Z,8.87
2023-03-29T00:10:24.538Z,8.23
2023-03-29T00:12:52.732Z,13.40
2023-03-29T00:15:20.156Z,7.87
2023-03-29T00:17:47.555Z,10.80
2023-03-29T00:20:15.047Z,7.83
2023-03-29T00:22:45.014Z,6.50
2023-03-29T00:25:12.449Z,12.93
2023-03-29T00:27:40.002Z,8.93
2023-03-29T00:30:07.918Z,8.47
2023-03-29T00:32:35.358Z,9.53
2023-03-29T00:35:02.748Z,9.53
2023-03-29T00:37:32.863Z,7.93
2023-03-29T00:40:00.221Z,6.90
2023-03-29T00:42:27.765Z,5.80
2023-03-29T00:45:02.120Z,7.40
2023-03-29T00:47:39.995Z,6.97
2023-03-29T00:50:11.487Z,6.67
2023-03-29T00:52:40.275Z,6.77
2023-03-29T00:55:11.571Z,5.90
2023-03-29T00:57:39.953Z,7.90
2023-03-29T01:00:10.648Z,8.73
2023-03-29T01:02:40.544Z,7.87
2023-03-29T01:05:09.198Z,9.27
2023-03-29T01:07:41.063Z,8.17
2023-03-29T01:10:12.647Z,9.27
2023-03-29T01:12:54.185Z,8.23
2023-03-29T01:15:24.612Z,7.60
2023-03-29T01:17:54.283Z,6.70
2023-03-29T01:20:27.841Z,6.83
2023-03-29T01:25:41.079Z,7.13
2023-03-29T01:28:11.742Z,7.97
2023-03-29T01:30:44.930Z,7.30
2023-03-29T01:33:32.751Z,8.45
2023-03-29T01:36:08.602Z,7.03
2023-03-29T01:38:44.318Z,5.60
2023-03-29T01:41:12.801Z,5.87
2023-03-29T01:43:46.229Z,6.17
2023-03-29T01:46:27.096Z,8.38
2023-03-29T01:48:57.645Z,6.57
2023-03-29T01:51:27.268Z,7.43
2023-03-29T01:53:59.922Z,6.07
2023-03-29T01:56:28.819Z,12.50
2023-03-29T01:59:05.730Z,7.63
2023-03-29T02:01:38.783Z,8.30
2023-03-29T02:04:11.043Z,12.30
2023-03-29T02:06:38.378Z,9.70
2023-03-29T02:09:05.786Z,10.60
2023-03-29T02:11:32.996Z,7.77
2023-03-29T02:14:00.342Z,9.37
2023-03-29T02:16:28.368Z,7.97
2023-03-29T02:18:57.373Z,9.87
2023-03-29T02:21:30.338Z,9.93
2023-03-29T02:23:59.945Z,8.32
2023-03-29T02:26:28.272Z,6.03
2023-03-29T02:28:56.485Z,7.17
2023-03-29T02:31:26.777Z,11.57
2023-03-29T02:33:59.346Z,8.53
2023-03-29T02:36:30.760Z,9.20
2023-03-29T02:38:59.318Z,10.57
2023-03-29T02:41:27.229Z,9.53
2023-03-29T02:43:56.623Z,10.47
2023-03-29T02:46:24.749Z,9.90
2023-03-29T02:48:54.203Z,9.80
2023-03-29T02:51:23.922Z,8.63
2023-03-29T02:54:00.308Z,11.73
2023-03-29T02:56:27.437Z,8.10
2023-03-29T02:58:54.539Z,8.30
2023-03-29T03:01:23.510Z,10.07
2023-03-29T03:03:52.731Z,11.07
2023-03-29T03:06:20.844Z,8.07
2023-03-29T03:08:47.535Z,9.23
2023-03-29T03:11:15.854Z,7.23
2023-03-29T03:13:42.995Z,5.67
2023-03-29T03:16:10.890Z,8.17
2023-03-29T03:18:38.111Z,8.10
2023-03-29T03:21:05.651Z,6.93
2023-03-29T03:23:32.837Z,8.13
2023-03-29T03:26:00.127Z,10.17
2023-03-29T03:28:28.031Z,7.50
2023-03-29T03:30:54.637Z,10.70
2023-03-29T03:33:21.870Z,12.50
2023-03-29T03:35:49.151Z,11.90
2023-03-29T03:38:17.412Z,9.57
2023-03-29T03:40:44.617Z,8.70
2023-03-29T03:43:12.297Z,13.90
2023-03-29T03:45:40.489Z,6.50
2023-03-29T03:48:07.842Z,5.70
2023-03-29T03:50:34.994Z,8.60
2023-03-29T03:53:02.254Z,6.03
2023-03-29T03:55:30.139Z,8.23
2023-03-29T03:57:57.739Z,10.23
2023-03-29T04:00:24.466Z,29.53
2023-03-29T04:02:52.041Z,10.60
2023-03-29T04:05:18.616Z,10.03
2023-03-29T04:07:45.963Z,8.77
2023-03-29T04:10:12.750Z,7.87
2023-03-29T04:12:40.542Z,11.30
2023-03-29T04:15:08.122Z,12.17
2023-03-29T04:17:34.845Z,10.80
2023-03-29T04:20:10.894Z,11.27
2023-03-29T04:22:37.624Z,10.10
2023-03-29T04:25:05.145Z,11.53
2023-03-29T04:27:32.191Z,12.97
2023-03-29T04:29:58.750Z,7.47
2023-03-29T04:32:26.163Z,13.83
2023-03-29T04:34:52.772Z,9.07
2023-03-29T04:37:22.131Z,12.17
2023-03-29T04:39:50.555Z,8.23
2023-03-29T04:42:18.481Z,10.00
2023-03-29T04:44:45.132Z,12.90
2023-03-29T04:47:13.748Z,11.00
2023-03-29T04:49:41.231Z,13.23
2023-03-29T04:52:08.162Z,11.73
2023-03-29T04:54:38.139Z,14.83
2023-03-29T04:57:05.528Z,16.63
2023-03-29T04:59:32.411Z,15.43
2023-03-29T05:01:59.598Z,13.53
2023-03-29T05:04:26.379Z,14.50
2023-03-29T05:06:53.102Z,16.60
2023-03-29T05:09:19.760Z,11.73
2023-03-29T05:11:46.916Z,13.10
2023-03-29T05:14:14.191Z,10.47
2023-03-29T05:16:41.180Z,13.90
2023-03-29T05:19:09.938Z,16.17
2023-03-29T05:21:37.499Z,14.80
2023-03-29T05:24:05.438Z,16.47
2023-03-29T05:26:33.242Z,16.73
2023-03-29T05:29:00.281Z,16.97
2023-03-29T05:31:26.775Z,17.43
2023-03-29T05:33:53.724Z,24.30
2023-03-29T05:36:21.141Z,18.50
2023-03-29T05:38:48.388Z,20.20
2023-03-29T05:41:16.127Z,15.53
2023-03-29T05:43:43.804Z,14.63
2023-03-29T05:46:12.491Z,19.33
2023-03-29T05:48:40.532Z,20.30
2023-03-29T05:51:07.208Z,16.73
2023-03-29T05:53:36.989Z,23.00
2023-03-29T05:56:04.196Z,18.50
2023-03-29T05:58:31.034Z,18.93
2023-03-29T06:00:57.632Z,20.73
2023-03-29T06:03:27.830Z,22.50
2023-03-29T06:05:59.648Z,18.17
2023-03-29T06:08:26.914Z,17.40
2023-03-29T06:11:06.592Z,15.17
2023-03-29T06:13:34.714Z,13.57
2023-03-29T06:16:01.346Z,19.90
2023-03-29T06:18:28.692Z,13.63
2023-03-29T06:20:56.447Z,11.80
2023-03-29T06:23:23.421Z,15.27
2023-03-29T06:25:51.620Z,13.68
2023-03-29T06:28:18.628Z,11.18
2023-03-29T06:30:46.358Z,16.65
2023-03-29T06:33:14.359Z,12.35
2023-03-29T06:35:41.686Z,12.52
2023-03-29T06:38:09.078Z,11.18
2023-03-29T06:40:38.020Z,12.73
2023-03-29T06:43:05.336Z,17.80
2023-03-29T06:45:32.983Z,10.05
2023-03-29T06:47:59.916Z,17.23
2023-03-29T06:50:26.602Z,10.23
2023-03-29T06:52:53.353Z,11.35
2023-03-29T06:55:21.843Z,8.18
2023-03-29T06:57:49.473Z,10.60
2023-03-29T07:00:19.734Z,7.22
2023-03-29T07:02:47.300Z,7.45
2023-03-29T07:05:14.811Z,8.68
2023-03-29T07:07:56.075Z,6.32
2023-03-29T07:10:46.299Z,28.23
2023-03-29T07:13:13.981Z,121.35
2023-03-29T07:15:41.180Z,14.23
2023-03-29T07:18:09.662Z,5.68
2023-03-29T07:20:38.568Z,5.93
2023-03-29T07:23:06.289Z,4.20
2023-03-29T07:25:34.726Z,3.25
2023-03-29T07:28:02.127Z,3.17
2023-03-29T07:30:31.995Z,4.85
2023-03-29T07:32:59.455Z,2.72
2023-03-29T07:35:27.696Z,2.75
2023-03-29T07:37:59.086Z,2.88
2023-03-29T07:40:26.718Z,3.58
2023-03-29T07:42:55.072Z,4.78
2023-03-29T07:45:26.601Z,3.28
2023-03-29T07:47:55.670Z,3.30
2023-03-29T07:50:22.930Z,2.95
2023-03-29T07:52:50.972Z,4.60
2023-03-29T07:55:18.082Z,4.93
2023-03-29T07:57:45.630Z,3.53
2023-03-29T08:00:16.510Z,8.05
2023-03-29T08:02:44.616Z,4.63
2023-03-29T08:05:13.301Z,4.05
2023-03-29T08:07:41.537Z,4.57
2023-03-29T08:10:14.093Z,3.80
2023-03-29T08:12:42.710Z,3.33
2023-03-29T08:15:09.701Z,17.77
2023-03-29T08:17:37.901Z,5.43
2023-03-29T08:20:06.447Z,43.42
2023-03-29T08:22:33.381Z,10.95
2023-03-29T08:25:00.171Z,4.22
2023-03-29T08:27:26.770Z,4.03
2023-03-29T08:29:53.302Z,3.35
2023-03-29T08:32:20.230Z,6.72
2023-03-29T08:34:47.198Z,5.07
2023-03-29T08:37:15.089Z,15.40
2023-03-29T08:39:41.689Z,3.92
2023-03-29T08:42:14.739Z,3.58
2023-03-29T08:44:56.810Z,4.82
2023-03-29T08:47:41.961Z,3.08
2023-03-29T08:50:09.372Z,2.28
2023-03-29T08:52:36.124Z,2.20
2023-03-29T08:55:05.857Z,3.20
2023-03-29T08:57:37.708Z,4.88
2023-03-29T09:00:06.053Z,3.30
2023-03-29T09:02:34.798Z,4.32
2023-03-29T09:05:08.492Z,3.72
2023-03-29T09:10:04.171Z,3.88
2023-03-29T09:12:50.217Z,2.55
2023-03-29T09:15:43.759Z,2.72
2023-03-29T09:18:16.728Z,3.95
2023-03-29T09:20:59.345Z,2.85
2023-03-29T09:23:32.610Z,5.03
2023-03-29T09:26:02.842Z,2.13
2023-03-29T09:28:39.014Z,1.92
2023-03-29T09:31:06.467Z,2.85
2023-03-29T09:33:38.222Z,3.28
2023-03-29T09:36:10.112Z,2.38
2023-03-29T09:38:43.468Z,2.67
2023-03-29T09:41:16.150Z,3.15
2023-03-29T09:43:44.009Z,2.50
2023-03-29T09:46:16.708Z,3.53
2023-03-29T09:48:44.653Z,4.60
2023-03-29T09:51:13.245Z,2.45
2023-03-29T09:53:39.785Z,2.75
2023-03-29T09:56:09.129Z,3.15
2023-03-29T09:58:36.355Z,7.18
2023-03-29T10:01:07.082Z,2.88
2023-03-29T10:03:35.525Z,3.47
2023-03-29T10:06:03.834Z,3.05
2023-03-29T10:08:39.343Z,4.07
2023-03-29T10:11:22.613Z,2.47
2023-03-29T10:13:51.645Z,2.67
2023-03-29T10:16:38.530Z,3.22
2023-03-29T10:19:20.119Z,3.15
2023-03-29T10:21:53.980Z,3.67
2023-03-29T10:24:22.367Z,2.92
2023-03-29T10:26:55.587Z,3.30
2023-03-29T10:29:24.094Z,3.28
2023-03-29T10:31:52.190Z,3.08
2023-03-29T10:34:56.399Z,3.47
2023-03-29T10:37:24.484Z,5.20
2023-03-29T10:39:52.079Z,4.57
2023-03-29T10:42:19.855Z,2.38
2023-03-29T10:44:54.105Z,8.15
2023-03-29T10:47:22.120Z,3.17
2023-03-29T10:49:56.652Z,2.70
2023-03-29T10:52:25.391Z,4.60
2023-03-29T10:54:55.218Z,2.92
2023-03-29T10:57:29.980Z,4.72
2023-03-29T11:00:07.612Z,2.03
2023-03-29T11:02:54.237Z,3.53
2023-03-29T11:05:27.395Z,2.35
2023-03-29T11:07:57.721Z,1.75
2023-03-29T11:10:37.344Z,3.50
2023-03-29T11:13:04.506Z,4.28
2023-03-29T11:16:08.484Z,2.65
2023-03-29T11:18:54.079Z,4.80
2023-03-29T11:21:36.633Z,2.60
2023-03-29T11:24:22.642Z,3.65
2023-03-29T11:26:52.972Z,3.42
2023-03-29T11:29:23.506Z,1.70
2023-03-29T11:31:56.665Z,1.83
2023-03-29T11:34:26.554Z,1.98
2023-03-29T11:36:59.730Z,4.43
2023-03-29T11:39:45.500Z,1.83
2023-03-29T11:42:18.218Z,2.42
2023-03-29T11:44:48.072Z,2.35
2023-03-29T11:47:19.184Z,5.78
2023-03-29T11:49:58.286Z,2.90
2023-03-29T11:52:37.027Z,6.38
2023-03-29T11:55:16.216Z,13.27
2023-03-29T11:57:54.263Z,4.10
2023-03-29T12:00:24.777Z,2.45
2023-03-29T12:02:55.302Z,3.38
2023-03-29T12:05:31.190Z,1.80
2023-03-29T12:08:03.972Z,2.15
2023-03-29T12:10:44.182Z,1.40
2023-03-29T12:13:17.332Z,2.45
2023-03-29T12:15:46.700Z,4.18
2023-03-29T12:18:18.595Z,2.55
2023-03-29T12:20:47.154Z,2.20
2023-03-29T12:23:15.245Z,2.08
2023-03-29T12:25:52.370Z,3.42
2023-03-29T12:28:51.846Z,3.13
2023-03-29T12:31:31.432Z,4.10
2023-03-29T12:34:10.966Z,1.95
2023-03-29T12:36:38.165Z,1.65
2023-03-29T12:39:05.243Z,4.00
2023-03-29T12:41:36.452Z,1.17
2023-03-29T12:44:04.107Z,2.03
2023-03-29T12:46:34.689Z,2.72
2023-03-29T12:49:09.660Z,2.35
2023-03-29T12:51:37.461Z,1.55
2023-03-29T12:54:10.738Z,1.90
2023-03-29T12:56:52.500Z,2.78
2023-03-29T12:59:37.493Z,2.67
2023-03-29T13:02:24.695Z,3.17
2023-03-29T13:04:52.676Z,3.20
2023-03-29T13:07:23.102Z,3.85
2023-03-29T13:09:51.401Z,2.40
2023-03-29T13:12:31.428Z,4.68
2023-03-29T13:15:01.895Z,3.45
2023-03-29T13:18:00.911Z,3.33
2023-03-29T13:20:38.263Z,3.97
2023-03-29T13:23:04.953Z,3.38
2023-03-29T13:25:34.458Z,3.38
2023-03-29T13:28:10.547Z,3.83
2023-03-29T13:30:50.703Z,2.20
2023-03-29T13:33:22.704Z,2.15
2023-03-29T13:35:56.064Z,3.13
2023-03-29T13:38:23.812Z,3.58
2023-03-29T13:40:53.492Z,3.17
2023-03-29T13:43:20.523Z,2.80
2023-03-29T13:45:59.869Z,4.05
2023-03-29T13:48:30.967Z,3.85
2023-03-29T13:51:01.732Z,3.03
2023-03-29T13:53:35.384Z,4.93
2023-03-29T13:56:03.505Z,3.10
2023-03-29T13:58:31.206Z,2.60
2023-03-29T14:01:16.715Z,3.58
2023-03-29T14:03:45.719Z,4.97
2023-03-29T14:06:18.733Z,4.60
2023-03-29T14:08:46.319Z,2.60
2023-03-29T14:11:21.835Z,3.95
2023-03-29T14:13:49.994Z,3.85
2023-03-29T14:16:17.328Z,2.85
2023-03-29T14:18:51.802Z,5.78
2023-03-29T14:21:20.466Z,4.70
2023-03-29T14:23:48.353Z,5.82
2023-03-29T14:26:16.949Z,3.13
2023-03-29T14:28:48.050Z,3.13
2023-03-29T14:31:18.778Z,2.72
2023-03-29T14:33:45.988Z,5.03
2023-03-29T14:36:17.248Z,2.55
2023-03-29T14:38:48.148Z,3.50
2023-03-29T14:41:14.880Z,2.53
2023-03-29T14:43:41.515Z,4.38
2023-03-29T14:46:08.403Z,2.58
2023-03-29T14:48:35.888Z,4.90
2023-03-29T14:51:04.063Z,1.60
2023-03-29T14:53:33.596Z,4.22
2023-03-29T14:56:02.638Z,2.30
2023-03-29T14:58:32.014Z,3.20
2023-03-29T15:01:03.919Z,3.95
2023-03-29T15:03:32.197Z,3.15
2023-03-29T15:06:00.877Z,3.55
2023-03-29T15:08:27.708Z,2.67
2023-03-29T15:10:54.248Z,5.80
2023-03-29T15:13:23.772Z,12.98
2023-03-29T15:15:54.259Z,10.50
2023-03-29T15:18:24.774Z,3.08
2023-03-29T15:20:52.129Z,5.70
2023-03-29T15:23:23.421Z,2.72
2023-03-29T15:25:58.305Z,4.25
2023-03-29T15:28:31.336Z,3.60
2023-03-29T15:31:24.144Z,6.70
2023-03-29T15:34:01.445Z,6.32
2023-03-29T15:36:28.308Z,4.88
2023-03-29T15:38:54.905Z,5.28
2023-03-29T15:41:21.690Z,5.97
2023-03-29T15:43:48.684Z,5.88
2023-03-29T15:46:16.941Z,6.03
2023-03-29T15:48:43.646Z,11.43
2023-03-29T15:51:12.951Z,5.07
2023-03-29T15:53:40.754Z,5.53
2023-03-29T15:56:10.272Z,8.02
2023-03-29T15:58:37.792Z,7.90
2023-03-29T16:01:11.650Z,6.88
2023-03-29T16:03:40.255Z,7.78
2023-03-29T16:06:10.322Z,5.55
2023-03-29T16:08:36.875Z,8.63
2023-03-29T16:11:05.574Z,12.95
2023-03-29T16:13:32.974Z,10.57
2023-03-29T16:16:00.838Z,8.18
2023-03-29T16:18:27.544Z,9.18
2023-03-29T16:20:54.467Z,12.48
2023-03-29T16:23:22.633Z,8.63
2023-03-29T16:25:49.467Z,8.60
2023-03-29T16:28:16.558Z,10.20
2023-03-29T16:30:43.270Z,12.20
2023-03-29T16:33:11.260Z,32.28
2023-03-29T16:35:40.470Z,32.35
2023-03-29T16:38:07.470Z,52.88
2023-03-29T16:40:35.654Z,24.33
2023-03-29T16:43:03.048Z,12.85
2023-03-29T16:45:30.389Z,7.55
2023-03-29T16:47:58.099Z,10.68
2023-03-29T16:50:25.931Z,10.10
2023-03-29T16:52:53.606Z,7.85
2023-03-29T16:55:21.104Z,9.85
2023-03-29T16:57:48.049Z,39.60
2023-03-29T17:00:16.549Z,35.08
2023-03-29T17:02:45.563Z,11.48
2023-03-29T17:05:12.934Z,10.38
2023-03-29T17:07:39.818Z,8.30
2023-03-29T17:10:10.905Z,12.32
2023-03-29T17:12:38.510Z,15.00
2023-03-29T17:15:06.172Z,15.85
2023-03-29T17:17:33.387Z,22.95
2023-03-29T17:20:01.089Z,21.45
2023-03-29T17:22:29.218Z,22.95
2023-03-29T17:24:56.704Z,33.20
2023-03-29T17:27:24.248Z,26.75
2023-03-29T17:29:51.389Z,30.90
2023-03-29T17:32:17.906Z,34.63
2023-03-29T17:34:44.681Z,39.85
2023-03-29T17:37:11.211Z,52.47
2023-03-29T17:39:38.494Z,72.90
2023-03-29T17:42:05.554Z,72.55
2023-03-29T17:44:33.865Z,62.83
2023-03-29T17:47:01.138Z,49.92
2023-03-29T17:49:28.092Z,41.85
2023-03-29T17:51:54.626Z,39.30
2023-03-29T17:54:21.233Z,42.60
2023-03-29T17:56:47.808Z,44.45
2023-03-29T17:59:16.106Z,39.97
2023-03-29T18:01:43.042Z,38.65
2023-03-29T18:04:10.510Z,35.72
2023-03-29T18:06:37.894Z,37.03
2023-03-29T18:09:05.521Z,41.47
2023-03-29T18:11:32.928Z,35.30
2023-03-29T18:14:01.164Z,37.20
2023-03-29T18:16:29.197Z,32.28
2023-03-29T18:18:55.932Z,33.13
2023-03-29T18:21:22.549Z,34.83
2023-03-29T18:23:49.915Z,33.67
2023-03-29T18:26:17.585Z,35.83
2023-03-29T18:28:47.425Z,31.58
2023-03-29T18:31:15.150Z,32.70
2023-03-29T18:33:41.878Z,40.85
2023-03-29T18:36:13.004Z,43.88
2023-03-29T18:38:40.753Z,43.05
2023-03-29T18:41:08.748Z,41.35
2023-03-29T18:43:36.111Z,36.60
2023-03-29T18:46:03.403Z,35.53
2023-03-29T18:48:30.284Z,39.08
2023-03-29T18:50:57.472Z,32.53
2023-03-29T18:53:24.136Z,34.53
2023-03-29T18:55:51.591Z,37.08
2023-03-29T18:58:21.480Z,47.15
2023-03-29T19:00:48.746Z,35.22
2023-03-29T19:03:15.371Z,31.13
2023-03-29T19:05:41.991Z,30.83
2023-03-29T19:08:09.755Z,39.00
2023-03-29T19:10:37.653Z,41.70
2023-03-29T19:13:04.840Z,36.92
2023-03-29T19:15:33.076Z,44.72
2023-03-29T19:18:00.119Z,45.95
2023-03-29T19:20:27.656Z,46.35
2023-03-29T19:22:55.124Z,46.17
2023-03-29T19:25:22.522Z,43.78
2023-03-29T19:27:50.768Z,47.15
2023-03-29T19:30:18.603Z,61.22
2023-03-29T19:32:46.354Z,77.43
2023-03-29T19:35:14.115Z,67.88
2023-03-29T19:37:41.885Z,64.07
2023-03-29T19:40:11.101Z,54.10
2023-03-29T19:42:38.884Z,43.53
2023-03-29T19:45:06.864Z,33.60
2023-03-29T19:47:34.407Z,36.10
2023-03-29T19:50:02.180Z,43.38
2023-03-29T19:52:29.586Z,28.55
2023-03-29T19:54:57.117Z,27.90
2023-03-29T19:57:26.109Z,38.92
2023-03-29T19:59:54.402Z,45.83
2023-03-29T20:02:21.051Z,55.85
2023-03-29T20:04:48.082Z,43.42
2023-03-29T20:07:14.841Z,120.97
2023-03-29T20:09:44.704Z,75.25
2023-03-29T20:12:12.365Z,101.78
2023-03-29T20:14:40.846Z,124.47
2023-03-29T20:17:08.671Z,155.13
2023-03-29T20:19:36.837Z,112.47
2023-03-29T20:22:04.865Z,74.25
2023-03-29T20:24:32.814Z,63.35
2023-03-29T20:27:00.213Z,54.42
2023-03-29T20:29:27.808Z,64.45
2023-03-29T20:31:54.476Z,75.88
2023-03-29T20:34:21.375Z,60.67
2023-03-29T20:36:47.960Z,52.80
2023-03-29T20:39:18.538Z,57.88
2023-03-29T20:41:48.047Z,197.48
2023-03-29T20:44:16.955Z,103.13
2023-03-29T20:46:46.897Z,441.25
2023-03-29T20:49:14.053Z,204.10
2023-03-29T20:51:43.389Z,192.48
2023-03-29T20:54:11.956Z,166.38
2023-03-29T20:56:40.195Z,55.30
2023-03-29T20:59:14.346Z,47.00
2023-03-29T21:01:41.697Z,55.42
2023-03-29T21:04:10.067Z,42.85
2023-03-29T21:06:40.350Z,81.95
2023-03-29T21:09:07.738Z,36.22
2023-03-29T21:11:35.045Z,83.13
2023-03-29T21:14:03.368Z,50.88
2023-03-29T21:16:31.661Z,62.67
2023-03-29T21:19:02.396Z,50.30
2023-03-29T21:21:30.203Z,39.25
2023-03-29T21:23:57.509Z,41.45
2023-03-29T21:26:24.733Z,35.33
2023-03-29T21:28:52.067Z,24.00
2023-03-29T21:31:19.406Z,43.78
2023-03-29T21:33:46.869Z,369.65
2023-03-29T21:36:14.317Z,51.08
2023-03-29T21:38:42.140Z,98.97
2023-03-29T21:41:12.589Z,40.80
2023-03-29T21:43:40.500Z,54.22
2023-03-29T21:46:08.905Z,25.83
2023-03-29T21:48:36.846Z,34.83
2023-03-29T21:51:04.656Z,26.30
2023-03-29T21:53:35.847Z,27.40
2023-03-29T21:56:03.495Z,24.02
2023-03-29T21:58:31.889Z,19.95
2023-03-29T22:00:59.514Z,20.23
2023-03-29T22:03:27.280Z,21.13
2023-03-29T22:05:58.116Z,37.00
2023-03-29T22:08:27.635Z,25.75
2023-03-29T22:10:55.661Z,38.88
2023-03-29T22:13:27.212Z,75.97
2023-03-29T22:16:01.890Z,42.78
2023-03-29T22:18:30.898Z,30.83
2023-03-29T22:20:58.253Z,23.50
2023-03-29T22:23:25.484Z,23.63
2023-03-29T22:25:52.708Z,20.63
2023-03-29T22:28:20.093Z,18.77
2023-03-29T22:30:47.397Z,19.10
2023-03-29T22:33:17.394Z,18.83
2023-03-29T22:35:44.598Z,19.17
2023-03-29T22:38:11.925Z,21.83
2023-03-29T22:40:40.768Z,52.33
2023-03-29T22:43:08.042Z,70.18
2023-03-29T22:45:35.279Z,48.83
2023-03-29T22:48:02.670Z,41.63
2023-03-29T22:50:30.028Z,54.00
2023-03-29T22:52:57.568Z,42.10
2023-03-29T22:55:25.238Z,67.35
2023-03-29T22:57:53.627Z,30.88
2023-03-29T23:00:21.003Z,69.32
2023-03-29T23:02:48.182Z,141.55
2023-03-29T23:05:15.752Z,92.72
2023-03-29T23:07:43.017Z,86.00
2023-03-29T23:10:11.699Z,103.53
2023-03-29T23:12:38.954Z,263.42
2023-03-29T23:15:06.874Z,169.40
2023-03-29T23:17:35.322Z,239.32
2023-03-29T23:20:02.677Z,127.68
2023-03-29T23:22:30.193Z,105.82
2023-03-29T23:24:57.457Z,89.90
2023-03-29T23:27:24.969Z,62.78
2023-03-29T23:29:51.640Z,38.15
2023-03-29T23:32:18.591Z,42.72
2023-03-29T23:34:45.686Z,44.72
2023-03-29T23:37:13.148Z,42.38
2023-03-29T23:39:40.498Z,64.72
2023-03-29T23:42:07.890Z,63.90
2023-03-29T23:44:35.032Z,79.30
2023-03-29T23:47:02.056Z,84.07
2023-03-29T23:49:29.092Z,35.22
2023-03-29T23:51:56.547Z,43.00
2023-03-29T23:54:23.734Z,67.82
2023-03-29T23:56:51.015Z,38.42
2023-03-29T23:59:18.291Z,83.20
